Flight Track Log - Related Links

Times and Time Zones

All times are in EDT time to prevent confusion due to time zone crossing. See the N361EA flight status page for this flight to view local times or setup timezone preferences in your user account.

Time Position Orientation Groundspeed Altitude Reporting Facility
EDT Latitude Longitude Course Direction KTS MPH feet Rate Location/Type
Mon 02:28:52 PM 48.6110 -123.1690 267° West 166 191 700  Level FlightAware ADS-B
Mon 02:29:12 PM 48.6090 -123.1930 263° West 175 201 1,300 1,588 Climbing FlightAware ADS-B
Mon 02:29:26 PM 48.6030 -123.2060 235° Southwest 171 197 1,600 1,200 Climbing FlightAware ADS-B
Mon 02:29:32 PM 48.5980 -123.2100 208° Southwest 176 203 1,700 500 Climbing FlightAware ADS-B
Mon 02:29:38 PM 48.5930 -123.2110 188° South 185 213 1,700 -200 Level FlightAware ADS-B
Mon 02:30:02 PM 48.5720 -123.2050 169° South 201 231 1,600 -136 Descending FlightAware ADS-B
Mon 02:30:22 PM 48.5530 -123.1990 168° South 207 238 1,600 450 Level FlightAware ADS-B
Mon 02:30:42 PM 48.5350 -123.1940 170° South 205 236 1,900 545 Climbing FlightAware ADS-B
Mon 02:31:06 PM 48.5140 -123.1870 168° South 204 235 2,000 122 Climbing FlightAware ADS-B
Mon 02:31:31 PM 48.4910 -123.1710 155° Southeast 213 245 2,000 133 Level FlightAware ADS-B
Mon 02:31:51 PM 48.4730 -123.1630 164° South 212 244 2,100 300 Climbing FlightAware ADS-B
Mon 02:32:11 PM 48.4540 -123.1550 164° South 212 244 2,200 133 Climbing FlightAware ADS-B
Mon 02:32:36 PM 48.4320 -123.1470 166° South 215 247 2,200  Level FlightAware ADS-B
Mon 02:32:56 PM 48.4110 -123.1400 168° South 217 250 2,200  Level FlightAware ADS-B
Mon 02:33:18 PM 48.3910 -123.1330 167° South 219 252 2,200 162 Level FlightAware ADS-B
Mon 02:33:33 PM 48.3750 -123.1250 162° South 212 244 2,300 1,385 Climbing FlightAware ADS-B
Mon 02:33:44 PM 48.3660 -123.1150 144° Southeast 193 222 2,800 2,400 Climbing FlightAware ADS-B
Mon 02:33:58 PM 48.3590 -123.1010 127° Southeast 182 209 3,300 2,182 Climbing FlightAware ADS-B
Mon 02:34:06 PM 48.3550 -123.0920 124° Southeast 184 212 3,600 2,270 Climbing FlightAware ADS-B
Mon 02:34:31 PM 48.3463 -123.0620 114° Southeast 4,500 2,276 Climbing FlightAware ADS-B
Mon 02:34:35 PM 48.3451 -123.0580 114° Southeast 184 212 4,700 2,057 Climbing FlightAware ADS-B
Mon 02:35:06 PM 48.3340 -123.0220 115° Southeast 185 213 5,700 2,038 Climbing FlightAware ADS-B
Mon 02:35:28 PM 48.3260 -122.9960 115° Southeast 184 212 6,500 2,093 Climbing FlightAware ADS-B
Mon 02:35:49 PM 48.3188 -122.9720 114° Southeast 184 212 7,200 2,000 Climbing FlightAware ADS-B
Mon 02:36:04 PM 48.3135 -122.9540 114° Southeast 183 211 7,700 2,077 Climbing FlightAware ADS-B
Mon 02:36:15 PM 48.3099 -122.9420 114° Southeast 183 211 8,100 2,000 Climbing FlightAware ADS-B
Mon 02:36:22 PM 48.3074 -122.9340 115° Southeast 182 209 8,300 2,400 Climbing FlightAware ADS-B
Mon 02:36:35 PM 48.3033 -122.9190 112° Southeast 170 196 8,900 2,750 Climbing FlightAware ADS-B
Mon 02:36:46 PM 48.2999 -122.9080 115° Southeast 166 191 9,400 2,449 Climbing FlightAware ADS-B
Mon 02:37:24 PM 48.2880 -122.8680 114° Southeast 172 198 10,900 1,737 Climbing FlightAware ADS-B
Mon 02:38:02 PM 48.2789 -122.8380 114° Southeast 183 211 11,600 2,164 Climbing FlightAware ADS-B
Mon 02:38:25 PM 48.2663 -122.7960 114° Southeast 181 208 13,100 2,889 Climbing FlightAware ADS-B
Mon 02:38:56 PM 48.2560 -122.7620 114° Southeast 178 205 14,200 2,118 Climbing FlightAware ADS-B
Mon 02:39:33 PM 48.2430 -122.7220 116° Southeast 172 198 15,500 2,055 Climbing FlightAware ADS-B
Mon 02:40:09 PM 48.2239 -122.6900 132° Southeast 168 193 16,700 2,000 Climbing FlightAware ADS-B
Mon 02:40:39 PM 48.2087 -122.6640 131° Southeast 165 190 17,700 2,000 Climbing FlightAware ADS-B
Mon 02:41:06 PM 48.1954 -122.6410 131° Southeast 160 184 18,600 1,026 Climbing FlightAware ADS-B
Mon 02:41:55 PM 48.1680 -122.5970 133° Southeast 218 251 19,000 324 Climbing FlightAware ADS-B
Mon 02:42:20 PM 48.1492 -122.5640 130° Southeast 246 283 19,000  Level FlightAware ADS-B
Mon 02:42:50 PM 48.1258 -122.5250 132° Southeast 262 302 19,000  Level FlightAware ADS-B
Mon 02:43:20 PM 48.1011 -122.4830 131° Southeast 270 311 19,000  Level FlightAware ADS-B
Mon 02:44:15 PM 48.0550 -122.4060 132° Southeast 271 312 19,000  Level FlightAware ADS-B
Mon 02:44:30 PM 48.0430 -122.3860 132° Southeast 272 313 19,000  Level FlightAware ADS-B
Mon 02:45:00 PM 48.0174 -122.3430 132° Southeast 273 314 19,000  Level FlightAware ADS-B
Mon 02:45:30 PM 47.9920 -122.3010 132° Southeast 273 314 19,000  Level FlightAware ADS-B
Mon 02:46:01 PM 47.9670 -122.2580 131° Southeast 271 312 19,000  Level FlightAware ADS-B
Mon 02:46:40 PM 47.9338 -122.2040 133° Southeast 271 312 19,000  Level FlightAware ADS-B
Mon 02:47:09 PM 47.9093 -122.1630 132° Southeast 271 312 19,000  Level FlightAware ADS-B
Mon 02:47:39 PM 47.8840 -122.1210 132° Southeast 272 313 19,000  Level FlightAware ADS-B
Mon 02:48:25 PM 47.8450 -122.0580 133° Southeast 274 315 19,000  Level FlightAware ADS-B
Mon 02:48:50 PM 47.8244 -122.0230 131° Southeast 273 314 19,000  Level FlightAware ADS-B
Mon 02:49:20 PM 47.7984 -121.9800 132° Southeast 272 313 19,000  Level FlightAware ADS-B
Mon 02:49:51 PM 47.7731 -121.9390 133° Southeast 270 311 19,000  Level FlightAware ADS-B
Mon 02:50:45 PM 47.7280 -121.8650 132° Southeast 270 311 19,000  Level FlightAware ADS-B
Mon 02:51:00 PM 47.7146 -121.8430 132° Southeast 270 311 19,000  Level FlightAware ADS-B
Mon 02:51:31 PM 47.6892 -121.8020 133° Southeast 270 311 19,000  Level FlightAware ADS-B
Mon 02:51:49 PM 47.6738 -121.7770 132° Southeast 271 312 19,000  Level FlightAware ADS-B
Mon 02:51:53 PM 47.6702 -121.7710 132° Southeast 270 311 19,000  Level FlightAware ADS-B
Mon 02:52:00 PM 47.6638 -121.7640 144° Southeast 266 306 19,000  Level FlightAware ADS-B
Mon 02:53:01 PM 47.5940 -121.7350 164° South 254 292 19,000  Level FlightAware ADS-B
Mon 02:53:11 PM 47.5832 -121.7320 169° South 257 296 19,000  Level FlightAware ADS-B
Mon 02:53:36 PM 47.5533 -121.7230 169° South 257 296 19,000  Level FlightAware ADS-B
Mon 02:53:54 PM 47.5318 -121.7170 169° South 256 295 19,000  Level FlightAware ADS-B
Mon 02:54:45 PM 47.4720 -121.7010 170° South 258 297 19,000  Level FlightAware ADS-B
Mon 02:55:23 PM 47.4339 -121.6900 169° South 260 299 19,000  Level FlightAware ADS-B
Mon 02:55:31 PM 47.4187 -121.6840 165° South 263 303 19,000  Level FlightAware ADS-B
Mon 02:55:39 PM 47.4097 -121.6770 152° Southeast 266 306 19,000  Level FlightAware ADS-B
Mon 02:55:44 PM 47.4053 -121.6730 148° Southeast 269 310 19,000  Level FlightAware ADS-B
Mon 02:55:51 PM 47.3985 -121.6640 138° Southeast 271 312 19,000  Level FlightAware ADS-B
Mon 02:55:56 PM 47.3941 -121.6570 133° Southeast 273 314 19,000  Level FlightAware ADS-B
Mon 02:56:18 PM 47.3771 -121.6230 126° Southeast 276 318 19,000  Level FlightAware ADS-B
Mon 02:57:04 PM 47.3430 -121.5560 127° Southeast 275 316 19,000  Level FlightAware ADS-B
Mon 02:57:31 PM 47.3223 -121.5150 127° Southeast 275 316 19,000  Level FlightAware ADS-B
Mon 02:58:01 PM 47.2990 -121.4690 127° Southeast 275 316 19,000  Level FlightAware ADS-B
Mon 02:58:31 PM 47.2759 -121.4240 127° Southeast 274 315 19,000 -500 Level FlightAware ADS-B
Mon 02:59:25 PM 47.2340 -121.3420 127° Southeast 294 338 18,300 -943 Descending FlightAware ADS-B
Mon 02:59:41 PM 47.2206 -121.3160 127° Southeast 298 343 17,900 -1,435 Descending FlightAware ADS-B
Mon 03:00:11 PM 47.1948 -121.2660 127° Southeast 305 351 17,200 -1,200 Descending FlightAware ADS-B
Mon 03:00:41 PM 47.1703 -121.2180 127° Southeast 288 331 16,700 -1,020 Descending FlightAware ADS-B
Mon 03:01:51 PM 47.1154 -121.1120 127° Southeast 278 320 15,500 -1,010 Descending FlightAware ADS-B
Mon 03:02:22 PM 47.0918 -121.0670 128° Southeast 277 319 15,000 -984 Descending FlightAware ADS-B
Mon 03:02:52 PM 47.0687 -121.0220 127° Southeast 274 315 14,500 -1,182 Descending FlightAware ADS-B
Mon 03:03:28 PM 47.0360 -120.9790 138° Southeast 269 310 13,700 -1,543 Descending FlightAware ADS-B
Mon 03:04:02 PM 47.0001 -120.9460 148° Southeast 266 306 12,700 -1,688 Descending FlightAware ADS-B
Mon 03:04:32 PM 46.9684 -120.9160 147° Southeast 262 302 11,900 -1,574 Descending FlightAware ADS-B
Mon 03:05:03 PM 46.9377 -120.8870 147° Southeast 255 293 11,100 205 Descending FlightAware ADS-B
Mon 03:06:00 PM 46.8970 -120.8450 145° Southeast 261 300 12,200 -1,752 Climbing FlightAware ADS-B
Mon 03:07:20 PM 46.8047 -120.7714 145° Southeast 237 273 7,100 -2,915 Descending Seattle Center
Mon 03:08:22 PM 46.7450 -120.7406 161° South 228 262 5,300 -1,366 Descending Seattle Center
Mon 03:09:23 PM 46.6975 -120.6819 140° Southeast 223 257 4,300 -885 Descending Seattle Center
Mon 03:10:24 PM 46.6544 -120.6203 135° Southeast 206 237 3,500 -829 Descending Seattle Center
Mon 03:11:26 PM 46.6133 -120.5672 138° Southeast 199 229 2,600 -537 Descending Seattle Center
Mon 03:12:27 PM 46.5881 -120.5131 124° Southeast 166 191 2,400 -488 Descending Seattle Center
Mon 03:13:29 PM 46.5628 -120.4906 149° Southeast 133 153 1,600 -634 Descending Seattle Center
Mon 03:14:30 PM 46.5664 -120.5375 276° West 113 130 1,100 -246 Descending Seattle Center
Mon 03:15:31 PM 46.5756 -120.5722 291° West 109 125 1,100  Level Seattle Center

Login

Don't have an account? Register now (free) for customized features, flight alerts, and more!